createdAt,value
2022-10-05T00:00:03.026Z,10.10
2022-10-05T00:01:02.975Z,10.10
2022-10-05T00:02:03.026Z,10.10
2022-10-05T00:03:02.937Z,10.10
2022-10-05T00:04:02.688Z,10.10
2022-10-05T00:05:02.669Z,10.10
2022-10-05T00:06:02.654Z,10.20
2022-10-05T00:07:02.701Z,10.20
2022-10-05T00:08:02.588Z,10.20
2022-10-05T00:09:02.719Z,10.20
2022-10-05T00:10:02.863Z,10.30
2022-10-05T00:11:02.962Z,10.30
2022-10-05T00:12:03.056Z,10.30
2022-10-05T00:13:03.109Z,10.30
2022-10-05T00:14:03.140Z,10.40
2022-10-05T00:15:02.992Z,10.40
2022-10-05T00:16:03.090Z,10.40
2022-10-05T00:17:03.181Z,10.40
2022-10-05T00:18:03.232Z,10.40
2022-10-05T00:19:03.205Z,10.40
2022-10-05T00:20:03.310Z,10.40
2022-10-05T00:21:03.356Z,10.50
2022-10-05T00:22:03.220Z,10.50
2022-10-05T00:23:03.353Z,10.50
2022-10-05T00:24:03.262Z,10.50
2022-10-05T00:25:03.227Z,10.50
2022-10-05T00:26:03.315Z,10.40
2022-10-05T00:27:03.276Z,10.50
2022-10-05T00:28:03.356Z,10.40
2022-10-05T00:29:03.472Z,10.40
2022-10-05T00:30:03.400Z,10.40
2022-10-05T00:31:03.502Z,10.40
2022-10-05T00:32:03.540Z,10.40
2022-10-05T00:33:03.445Z,10.40
2022-10-05T00:34:03.597Z,10.40
2022-10-05T00:35:03.473Z,10.40
2022-10-05T00:36:03.479Z,10.40
2022-10-05T00:37:03.430Z,10.40
2022-10-05T00:38:03.503Z,10.40
2022-10-05T00:39:03.563Z,10.40
2022-10-05T00:40:03.627Z,10.40
2022-10-05T00:41:02.689Z,10.30
2022-10-05T00:42:02.620Z,10.30
2022-10-05T00:43:02.676Z,10.30
2022-10-05T00:44:02.634Z,10.30
2022-10-05T00:45:02.680Z,10.30
2022-10-05T00:46:02.654Z,10.30
2022-10-05T00:47:02.712Z,10.30
2022-10-05T00:48:02.673Z,10.30
2022-10-05T00:49:02.693Z,10.20
2022-10-05T00:50:03.601Z,10.20
2022-10-05T00:51:02.606Z,10.20
2022-10-05T00:52:02.785Z,10.20
2022-10-05T00:53:02.750Z,10.20
2022-10-05T00:54:02.677Z,10.20
2022-10-05T00:55:02.679Z,10.20
2022-10-05T00:56:03.665Z,10.20
2022-10-05T00:57:02.692Z,10.20
2022-10-05T00:58:02.601Z,10.20
2022-10-05T00:59:03.601Z,10.20
2022-10-05T01:00:02.604Z,10.20
2022-10-05T01:01:02.714Z,10.20
2022-10-05T01:02:02.731Z,10.20
2022-10-05T01:03:02.715Z,10.20
2022-10-05T01:04:02.768Z,10.20
2022-10-05T01:05:02.837Z,10.20
2022-10-05T01:06:02.859Z,10.20
2022-10-05T01:07:02.964Z,10.20
2022-10-05T01:08:02.903Z,10.30
2022-10-05T01:09:02.961Z,10.20
2022-10-05T01:10:02.958Z,10.20
2022-10-05T01:11:03.023Z,10.20
2022-10-05T01:12:03.093Z,10.20
2022-10-05T01:13:03.089Z,10.20
2022-10-05T01:14:03.030Z,10.20
2022-10-05T01:15:03.102Z,10.20
2022-10-05T01:16:03.048Z,10.20
2022-10-05T01:17:03.058Z,10.20
2022-10-05T01:18:02.998Z,10.20
2022-10-05T01:19:03.082Z,10.20
2022-10-05T01:20:03.013Z,10.20
2022-10-05T01:21:02.975Z,10.20
2022-10-05T01:22:03.124Z,10.20
2022-10-05T01:23:03.194Z,10.20
2022-10-05T01:24:03.217Z,10.20
2022-10-05T01:25:03.170Z,10.20
2022-10-05T01:26:03.156Z,10.20
2022-10-05T01:27:03.067Z,10.10
2022-10-05T01:28:03.217Z,10.10
2022-10-05T01:29:03.175Z,10.10
2022-10-05T01:30:03.088Z,10.10
2022-10-05T01:31:03.345Z,10.10
2022-10-05T01:32:03.291Z,10.10
2022-10-05T01:33:03.322Z,10.10
2022-10-05T01:34:05.759Z,10.10
2022-10-05T01:35:03.272Z,10.00
2022-10-05T01:36:03.296Z,10.00
2022-10-05T01:37:03.357Z,10.00
2022-10-05T01:38:03.306Z,10.00
2022-10-05T01:39:03.342Z,10.00
2022-10-05T01:40:03.313Z,10.00
2022-10-05T01:41:03.186Z,10.00
2022-10-05T01:42:03.292Z,9.90
2022-10-05T01:43:03.373Z,9.90
2022-10-05T01:44:03.451Z,9.90
2022-10-05T01:45:03.477Z,9.90
2022-10-05T01:46:03.408Z,9.90
2022-10-05T01:47:03.381Z,9.90
2022-10-05T01:48:03.478Z,9.90
2022-10-05T01:49:03.531Z,9.90
2022-10-05T01:50:03.533Z,9.90
2022-10-05T01:51:03.597Z,9.90
2022-10-05T01:52:03.557Z,9.90
2022-10-05T01:53:03.558Z,9.90
2022-10-05T01:54:03.491Z,9.90
2022-10-05T01:55:03.620Z,9.90
2022-10-05T01:56:03.549Z,9.90
2022-10-05T01:57:03.560Z,9.90
2022-10-05T01:58:03.508Z,9.90
2022-10-05T01:59:03.601Z,9.90
2022-10-05T02:00:03.603Z,9.80
2022-10-05T02:01:03.618Z,9.90
2022-10-05T02:02:03.574Z,9.80
2022-10-05T02:03:03.504Z,9.90
2022-10-05T02:04:03.457Z,9.90
2022-10-05T02:05:03.513Z,9.90
2022-10-05T02:06:03.397Z,9.90
2022-10-05T02:07:03.439Z,9.90
2022-10-05T02:08:03.324Z,9.90
2022-10-05T02:09:03.383Z,9.90
2022-10-05T02:10:03.374Z,9.80
2022-10-05T02:11:03.322Z,9.90
2022-10-05T02:12:03.301Z,9.90
2022-10-05T02:13:03.360Z,9.90
2022-10-05T02:14:03.372Z,9.90
2022-10-05T02:15:03.214Z,9.90
2022-10-05T02:16:03.394Z,9.90
2022-10-05T02:17:03.375Z,9.90
2022-10-05T02:18:03.357Z,9.90
2022-10-05T02:19:03.286Z,9.90
2022-10-05T02:20:03.222Z,10.00
2022-10-05T02:21:03.246Z,10.00
2022-10-05T02:22:03.181Z,10.00
2022-10-05T02:23:03.251Z,10.00
2022-10-05T02:24:03.183Z,10.00
2022-10-05T02:25:03.238Z,10.00
2022-10-05T02:26:03.177Z,10.00
2022-10-05T02:27:03.185Z,10.00
2022-10-05T02:28:03.132Z,10.00
2022-10-05T02:29:03.040Z,10.00
2022-10-05T02:30:03.029Z,10.00
2022-10-05T02:31:03.144Z,10.00
2022-10-05T02:32:03.135Z,10.00
2022-10-05T02:33:03.101Z,10.00
2022-10-05T02:34:03.137Z,10.10
2022-10-05T02:35:03.128Z,10.10
2022-10-05T02:36:03.191Z,10.10
2022-10-05T02:37:03.043Z,10.10
2022-10-05T02:38:03.143Z,10.10
2022-10-05T02:39:03.057Z,10.10
2022-10-05T02:40:03.078Z,10.10
2022-10-05T02:41:03.003Z,10.20
2022-10-05T02:42:03.030Z,10.20
2022-10-05T02:43:03.041Z,10.20
2022-10-05T02:44:03.050Z,10.20
2022-10-05T02:45:02.940Z,10.20
2022-10-05T02:46:02.927Z,10.20
2022-10-05T02:47:03.007Z,10.20
2022-10-05T02:48:02.917Z,10.20
2022-10-05T02:49:02.895Z,10.20
2022-10-05T02:50:02.825Z,10.20
2022-10-05T02:51:02.961Z,10.20
2022-10-05T02:52:02.834Z,10.20
2022-10-05T02:53:02.896Z,10.20
2022-10-05T02:54:03.162Z,10.20
2022-10-05T02:55:03.142Z,10.20
2022-10-05T02:56:03.021Z,10.10
2022-10-05T02:57:03.105Z,10.10
2022-10-05T02:58:03.142Z,10.10
2022-10-05T02:59:03.183Z,10.10
2022-10-05T03:00:03.425Z,10.10
2022-10-05T03:01:03.588Z,10.10
2022-10-05T03:02:03.468Z,10.10
2022-10-05T03:03:03.538Z,10.10
2022-10-05T03:04:03.608Z,10.00
2022-10-05T03:05:03.570Z,10.00
2022-10-05T03:06:03.452Z,10.00
2022-10-05T03:07:03.500Z,10.00
2022-10-05T03:08:03.571Z,10.00
2022-10-05T03:09:03.467Z,10.00
2022-10-05T03:10:03.387Z,9.90
2022-10-05T03:11:03.569Z,9.90
2022-10-05T03:12:03.496Z,9.90
2022-10-05T03:13:03.570Z,9.90
2022-10-05T03:14:02.663Z,9.90
2022-10-05T03:15:02.765Z,9.90
2022-10-05T03:16:02.839Z,9.90
2022-10-05T03:17:02.812Z,9.90
2022-10-05T03:18:02.736Z,9.90
2022-10-05T03:19:02.695Z,9.90
2022-10-05T03:20:02.761Z,9.90
2022-10-05T03:21:02.742Z,9.90
2022-10-05T03:22:02.744Z,9.90
2022-10-05T03:23:02.656Z,9.90
2022-10-05T03:24:02.699Z,9.90
2022-10-05T03:25:02.757Z,9.90
2022-10-05T03:26:02.852Z,9.90
2022-10-05T03:27:02.736Z,9.90
2022-10-05T03:28:02.732Z,9.90
2022-10-05T03:29:02.814Z,9.90
2022-10-05T03:30:02.880Z,9.90
2022-10-05T03:31:02.842Z,9.90
2022-10-05T03:32:02.873Z,9.90
2022-10-05T03:33:02.968Z,9.90
2022-10-05T03:34:03.014Z,9.90
2022-10-05T03:35:02.887Z,9.90
2022-10-05T03:36:03.028Z,9.90
2022-10-05T03:37:02.990Z,9.90
2022-10-05T03:38:02.906Z,9.90
2022-10-05T03:39:02.965Z,9.90
2022-10-05T03:40:02.892Z,9.80
2022-10-05T03:41:02.874Z,9.80
2022-10-05T03:42:02.834Z,9.80
2022-10-05T03:43:02.762Z,9.80
2022-10-05T03:44:02.840Z,9.70
2022-10-05T03:45:02.777Z,9.70
2022-10-05T03:46:02.806Z,9.70
2022-10-05T03:47:02.782Z,9.70
2022-10-05T03:48:02.796Z,9.70
2022-10-05T03:49:02.914Z,9.60
2022-10-05T03:50:02.857Z,9.60
2022-10-05T03:51:02.769Z,9.60
2022-10-05T03:52:02.788Z,9.60
2022-10-05T03:53:02.833Z,9.60
2022-10-05T03:54:02.785Z,9.50
2022-10-05T03:55:02.792Z,9.50
2022-10-05T03:56:03.392Z,9.50
2022-10-05T03:57:02.758Z,9.50
2022-10-05T03:58:02.780Z,9.50
2022-10-05T03:59:02.695Z,9.50
2022-10-05T04:00:02.638Z,9.50
2022-10-05T04:01:02.676Z,9.50
2022-10-05T04:02:02.691Z,9.50
2022-10-05T04:03:02.716Z,9.40
2022-10-05T04:04:02.689Z,9.40
2022-10-05T04:05:02.627Z,9.40
2022-10-05T04:06:02.645Z,9.40
2022-10-05T04:07:02.626Z,9.40
2022-10-05T04:08:02.692Z,9.40
2022-10-05T04:09:02.617Z,9.40
2022-10-05T04:10:03.588Z,9.40
2022-10-05T04:11:03.645Z,9.40
2022-10-05T04:12:03.582Z,9.40
2022-10-05T04:13:03.481Z,9.30
2022-10-05T04:14:03.500Z,9.30
2022-10-05T04:15:03.575Z,9.30
2022-10-05T04:16:03.749Z,9.30
2022-10-05T04:17:03.526Z,9.30
2022-10-05T04:18:03.558Z,9.30
2022-10-05T04:19:03.484Z,9.30
2022-10-05T04:20:03.630Z,9.30
2022-10-05T04:21:03.549Z,9.30
2022-10-05T04:22:03.613Z,9.30
2022-10-05T04:23:02.656Z,9.30
2022-10-05T04:24:03.633Z,9.30
2022-10-05T04:25:02.915Z,9.30
2022-10-05T04:26:02.982Z,9.30
2022-10-05T04:27:03.020Z,9.30
2022-10-05T04:28:02.950Z,9.30
2022-10-05T04:29:02.966Z,9.30
2022-10-05T04:30:02.948Z,9.40
2022-10-05T04:31:02.944Z,9.40
2022-10-05T04:32:02.895Z,9.40
2022-10-05T04:33:02.885Z,9.40
2022-10-05T04:34:02.829Z,9.40
2022-10-05T04:35:02.829Z,9.40
2022-10-05T04:36:02.797Z,9.50
2022-10-05T04:37:02.901Z,9.50
2022-10-05T04:38:03.018Z,9.50
2022-10-05T04:39:03.020Z,9.50
2022-10-05T04:40:03.114Z,9.60
2022-10-05T04:41:03.010Z,9.60
2022-10-05T04:42:03.010Z,9.60
2022-10-05T04:43:02.970Z,9.60
2022-10-05T04:44:02.897Z,9.60
2022-10-05T04:45:02.873Z,9.60
2022-10-05T04:46:02.908Z,9.70
2022-10-05T04:47:03.010Z,9.70
2022-10-05T04:48:02.889Z,9.70
2022-10-05T04:49:02.991Z,9.70
2022-10-05T04:50:03.069Z,9.70
2022-10-05T04:51:02.986Z,9.70
2022-10-05T04:52:02.954Z,9.70
2022-10-05T04:53:03.026Z,9.70
2022-10-05T04:54:03.002Z,9.70
2022-10-05T04:55:03.099Z,9.70
2022-10-05T04:56:03.073Z,9.70
2022-10-05T04:57:03.101Z,9.80
2022-10-05T04:58:03.088Z,9.80
2022-10-05T04:59:03.194Z,9.80
2022-10-05T05:00:03.630Z,9.80
2022-10-05T05:01:03.237Z,9.80
2022-10-05T05:02:03.224Z,9.80
2022-10-05T05:03:03.397Z,9.90
2022-10-05T05:04:03.472Z,9.90
2022-10-05T05:05:03.314Z,9.90
2022-10-05T05:06:16.682Z,9.90
2022-10-05T05:07:03.317Z,10.00
2022-10-05T05:08:03.326Z,10.00
2022-10-05T05:09:03.234Z,10.00
2022-10-05T05:10:03.280Z,10.10
2022-10-05T05:11:03.307Z,10.10
2022-10-05T05:12:03.122Z,10.10
2022-10-05T05:13:03.067Z,10.10
2022-10-05T05:14:03.080Z,10.20
2022-10-05T05:15:03.246Z,10.20
2022-10-05T05:16:03.339Z,10.20
2022-10-05T05:17:03.384Z,10.20
2022-10-05T05:18:03.510Z,10.30
2022-10-05T05:19:03.473Z,10.30
2022-10-05T05:20:03.487Z,10.30
2022-10-05T05:21:03.589Z,10.30
2022-10-05T05:22:03.481Z,10.30
2022-10-05T05:23:02.854Z,10.40
2022-10-05T05:24:02.895Z,10.40
2022-10-05T05:25:03.028Z,10.40
2022-10-05T05:26:02.940Z,10.40
2022-10-05T05:27:03.007Z,10.40
2022-10-05T05:28:03.072Z,10.50
2022-10-05T05:29:02.987Z,10.50
2022-10-05T05:30:02.953Z,10.50
2022-10-05T05:31:03.230Z,10.50
2022-10-05T05:32:03.156Z,10.50
2022-10-05T05:33:03.254Z,10.60
2022-10-05T05:34:03.326Z,10.60
2022-10-05T05:35:03.348Z,10.60
2022-10-05T05:36:03.390Z,10.60
2022-10-05T05:37:03.439Z,10.60
2022-10-05T05:38:03.500Z,10.60
2022-10-05T05:39:03.528Z,10.60
2022-10-05T05:40:02.649Z,10.70
2022-10-05T05:41:02.670Z,10.70
2022-10-05T05:42:02.758Z,10.70
2022-10-05T05:43:02.688Z,10.70
2022-10-05T05:44:02.798Z,10.70
2022-10-05T05:45:02.722Z,10.70
2022-10-05T05:46:02.793Z,10.80
2022-10-05T05:47:04.694Z,10.80
2022-10-05T05:48:02.989Z,10.80
2022-10-05T05:49:02.999Z,10.80
2022-10-05T05:50:06.922Z,10.80
2022-10-05T05:51:03.000Z,10.80
2022-10-05T05:52:03.029Z,10.80
2022-10-05T05:53:03.046Z,10.80
2022-10-05T05:54:02.940Z,10.80
2022-10-05T05:55:03.031Z,10.80
2022-10-05T05:56:03.043Z,10.90
2022-10-05T05:57:03.031Z,10.90
2022-10-05T05:58:03.098Z,10.90
2022-10-05T05:59:03.097Z,10.90
2022-10-05T06:00:03.164Z,10.90
2022-10-05T06:01:03.206Z,10.90
2022-10-05T06:02:03.366Z,10.90
2022-10-05T06:03:03.471Z,10.90
2022-10-05T06:04:03.550Z,10.90
2022-10-05T06:05:03.482Z,10.90
2022-10-05T06:06:02.586Z,10.90
2022-10-05T06:07:02.777Z,10.90
2022-10-05T06:08:02.714Z,10.90
2022-10-05T06:09:02.742Z,10.90
2022-10-05T06:10:02.855Z,11.00
2022-10-05T06:11:02.780Z,11.00
2022-10-05T06:12:03.177Z,11.00
2022-10-05T06:13:03.496Z,11.00
2022-10-05T06:14:03.579Z,11.00
2022-10-05T06:15:03.449Z,11.00
2022-10-05T06:16:03.482Z,11.00
2022-10-05T06:17:03.576Z,11.00
2022-10-05T06:18:02.618Z,11.10
2022-10-05T06:19:02.759Z,11.20
2022-10-05T06:20:05.381Z,11.30
2022-10-05T06:21:02.726Z,11.40
2022-10-05T06:22:02.832Z,11.50
2022-10-05T06:23:03.344Z,11.60
2022-10-05T06:24:02.936Z,11.70
2022-10-05T06:25:02.954Z,11.80
2022-10-05T06:26:04.172Z,12.00
2022-10-05T06:27:02.898Z,12.10
2022-10-05T06:28:03.090Z,12.20
2022-10-05T06:29:02.954Z,12.30
2022-10-05T06:30:03.005Z,12.50
2022-10-05T06:31:03.094Z,12.60
2022-10-05T06:32:03.163Z,12.70
2022-10-05T06:33:03.284Z,12.80
2022-10-05T06:34:03.179Z,12.80
2022-10-05T06:35:03.127Z,12.90
2022-10-05T06:36:03.303Z,13.00
2022-10-05T06:37:03.401Z,13.10
2022-10-05T06:38:03.504Z,13.20
2022-10-05T06:39:03.473Z,13.30
2022-10-05T06:40:03.523Z,13.40
2022-10-05T06:41:03.593Z,13.50
2022-10-05T06:42:02.629Z,13.60
2022-10-05T06:43:02.712Z,13.70
2022-10-05T06:44:02.685Z,13.80
2022-10-05T06:45:02.729Z,13.80
2022-10-05T06:46:02.695Z,13.90
2022-10-05T06:47:02.843Z,14.00
2022-10-05T06:48:05.296Z,14.00
2022-10-05T06:49:02.970Z,14.10
2022-10-05T06:50:02.983Z,14.20
2022-10-05T06:51:02.924Z,14.30
2022-10-05T06:52:02.929Z,14.30
2022-10-05T06:53:02.794Z,14.40
2022-10-05T06:54:02.750Z,14.40
2022-10-05T06:55:03.212Z,14.50
2022-10-05T06:56:03.308Z,14.50
2022-10-05T06:57:03.290Z,14.50
2022-10-05T06:58:03.430Z,14.50
2022-10-05T06:59:03.373Z,14.50
2022-10-05T07:00:03.398Z,14.50
2022-10-05T07:01:03.352Z,14.50
2022-10-05T07:02:03.346Z,14.60
2022-10-05T07:03:03.377Z,14.60
2022-10-05T07:04:03.431Z,14.70
2022-10-05T07:05:03.481Z,14.70
2022-10-05T07:06:03.491Z,14.70
2022-10-05T07:07:03.527Z,14.80
2022-10-05T07:08:03.641Z,14.80
2022-10-05T07:09:03.583Z,14.90
2022-10-05T07:10:02.644Z,15.00
2022-10-05T07:11:02.755Z,15.00
2022-10-05T07:12:05.275Z,15.10
2022-10-05T07:13:02.892Z,15.10
2022-10-05T07:14:02.853Z,15.10
2022-10-05T07:15:02.782Z,15.10
2022-10-05T07:16:02.837Z,15.10
2022-10-05T07:17:02.916Z,15.10
2022-10-05T07:18:02.952Z,15.10
2022-10-05T07:19:02.912Z,15.20
2022-10-05T07:20:03.082Z,15.20
2022-10-05T07:21:03.001Z,15.20
2022-10-05T07:22:03.605Z,15.10
2022-10-05T07:23:02.621Z,15.20
2022-10-05T07:24:02.767Z,15.10
2022-10-05T07:25:02.748Z,15.20
2022-10-05T07:26:02.789Z,15.20
2022-10-05T07:27:02.959Z,15.20
2022-10-05T07:28:02.919Z,15.20
2022-10-05T07:29:02.961Z,15.20
2022-10-05T07:30:03.063Z,15.20
2022-10-05T07:31:03.188Z,15.30
2022-10-05T07:32:03.074Z,15.30
2022-10-05T07:33:03.034Z,15.30
2022-10-05T07:34:03.022Z,15.30
2022-10-05T07:35:02.949Z,15.30
2022-10-05T07:36:02.896Z,15.30
2022-10-05T07:37:02.940Z,15.40
2022-10-05T07:38:02.890Z,15.40
2022-10-05T07:39:02.796Z,15.40
2022-10-05T07:40:02.786Z,15.50
2022-10-05T07:41:02.836Z,15.50
2022-10-05T07:42:02.791Z,15.50
2022-10-05T07:43:02.864Z,15.60
2022-10-05T07:44:03.471Z,15.60
2022-10-05T07:45:03.013Z,15.60
2022-10-05T07:46:03.101Z,15.70
2022-10-05T07:47:03.198Z,15.70
2022-10-05T07:48:03.231Z,15.70
2022-10-05T07:49:03.114Z,15.80
2022-10-05T07:50:03.265Z,15.80
2022-10-05T07:51:03.308Z,15.80
2022-10-05T07:52:03.361Z,15.80
2022-10-05T07:53:03.375Z,15.80
2022-10-05T07:54:03.433Z,15.80
2022-10-05T07:55:03.464Z,15.80
2022-10-05T07:56:03.536Z,15.70
2022-10-05T07:57:03.463Z,15.70
2022-10-05T07:58:03.532Z,15.70
2022-10-05T07:59:02.673Z,15.70
2022-10-05T08:00:02.709Z,15.70
2022-10-05T08:01:02.763Z,15.70
2022-10-05T08:02:03.034Z,15.70
2022-10-05T08:03:02.893Z,15.80
2022-10-05T08:04:02.991Z,15.80
2022-10-05T08:05:02.955Z,15.80
2022-10-05T08:06:03.005Z,15.80
2022-10-05T08:07:02.962Z,15.90
2022-10-05T08:08:02.919Z,15.90
2022-10-05T08:09:03.002Z,15.90
2022-10-05T08:10:02.901Z,15.90
2022-10-05T08:11:03.050Z,15.90
2022-10-05T08:13:03.053Z,16.00
2022-10-05T08:14:03.045Z,16.00
2022-10-05T08:15:03.045Z,16.00
2022-10-05T08:16:03.071Z,16.00
2022-10-05T08:17:03.294Z,16.00
2022-10-05T08:18:03.217Z,16.00
2022-10-05T08:19:02.633Z,16.00
2022-10-05T08:20:02.717Z,16.00
2022-10-05T08:21:02.727Z,16.00
2022-10-05T08:22:02.809Z,16.00
2022-10-05T08:23:02.893Z,16.00
2022-10-05T08:24:02.848Z,16.00
2022-10-05T08:25:02.855Z,16.00
2022-10-05T08:26:02.976Z,16.00
2022-10-05T08:27:03.014Z,16.10
2022-10-05T08:28:03.130Z,16.00
2022-10-05T08:29:03.089Z,16.00
2022-10-05T08:30:03.116Z,16.10
2022-10-05T08:31:03.219Z,16.10
2022-10-05T08:32:03.259Z,16.10
2022-10-05T08:33:03.244Z,16.10
2022-10-05T08:34:03.299Z,16.10
2022-10-05T08:35:03.450Z,16.10
2022-10-05T08:36:03.419Z,16.10
2022-10-05T08:37:03.471Z,16.10
2022-10-05T08:38:02.686Z,16.10
2022-10-05T08:39:02.799Z,16.10
2022-10-05T08:40:02.731Z,16.10
2022-10-05T08:41:02.684Z,16.20
2022-10-05T08:42:02.678Z,16.20
2022-10-05T08:43:02.680Z,16.20
2022-10-05T08:44:02.798Z,16.20
2022-10-05T08:45:02.817Z,16.20
2022-10-05T08:46:02.775Z,16.30
2022-10-05T08:47:02.768Z,16.30
2022-10-05T08:48:02.921Z,16.30
2022-10-05T08:49:02.958Z,16.40
2022-10-05T08:50:02.989Z,16.40
2022-10-05T08:51:03.017Z,16.40
2022-10-05T08:52:03.119Z,16.50
2022-10-05T08:53:03.177Z,16.50
2022-10-05T08:54:03.195Z,16.50
2022-10-05T08:55:03.333Z,16.50
2022-10-05T08:56:03.321Z,16.60
2022-10-05T08:57:03.493Z,16.60
2022-10-05T08:58:03.419Z,16.60
2022-10-05T08:59:03.387Z,16.60
2022-10-05T09:00:03.561Z,16.60
2022-10-05T09:01:03.657Z,16.60
2022-10-05T09:02:03.568Z,16.60
2022-10-05T09:03:03.600Z,16.60
2022-10-05T09:04:03.595Z,16.70
2022-10-05T09:05:02.779Z,16.70
2022-10-05T09:06:02.620Z,16.70
2022-10-05T09:07:02.661Z,16.70
2022-10-05T09:08:02.693Z,16.70
2022-10-05T09:09:02.750Z,16.80
2022-10-05T09:10:02.759Z,16.80
2022-10-05T09:11:02.896Z,16.80
2022-10-05T09:12:03.034Z,16.80
2022-10-05T09:13:02.984Z,16.80
2022-10-05T09:14:03.049Z,16.90
2022-10-05T09:15:24.080Z,16.90
2022-10-05T09:16:03.255Z,16.90
2022-10-05T09:17:03.089Z,16.90
2022-10-05T09:18:03.156Z,16.90
2022-10-05T09:19:03.176Z,17.00
2022-10-05T09:20:03.203Z,17.00
2022-10-05T09:21:03.221Z,17.00
2022-10-05T09:22:03.244Z,17.00
2022-10-05T09:23:03.426Z,17.10
2022-10-05T09:24:03.615Z,17.10
2022-10-05T09:25:03.649Z,17.20
2022-10-05T09:26:02.746Z,17.30
2022-10-05T09:27:02.749Z,17.30
2022-10-05T09:28:02.881Z,17.40
2022-10-05T09:29:02.891Z,17.40
2022-10-05T09:30:03.106Z,17.50
2022-10-05T09:31:02.970Z,17.50
2022-10-05T09:32:02.863Z,17.60
2022-10-05T09:33:03.011Z,17.60
2022-10-05T09:34:03.107Z,17.70
2022-10-05T09:35:03.167Z,17.70
2022-10-05T09:36:03.225Z,17.80
2022-10-05T09:37:03.262Z,17.80
2022-10-05T09:38:03.348Z,17.90
2022-10-05T09:39:03.231Z,18.00
2022-10-05T09:40:03.448Z,18.00
2022-10-05T09:41:03.392Z,18.00
2022-10-05T09:42:03.412Z,18.10
2022-10-05T09:43:03.581Z,18.20
2022-10-05T09:44:02.681Z,18.20
2022-10-05T09:45:02.671Z,18.30
2022-10-05T09:46:02.717Z,18.30
2022-10-05T09:47:02.655Z,18.30
2022-10-05T09:48:02.740Z,18.40
2022-10-05T09:49:02.729Z,18.40
2022-10-05T09:50:02.671Z,18.40
2022-10-05T09:51:02.702Z,18.40
2022-10-05T09:52:02.736Z,18.50
2022-10-05T09:53:02.626Z,18.40
2022-10-05T09:54:02.627Z,18.50
2022-10-05T09:55:02.679Z,18.50
2022-10-05T09:56:02.713Z,18.50
2022-10-05T09:57:02.629Z,18.50
2022-10-05T09:58:02.807Z,18.50
2022-10-05T09:59:02.894Z,18.50
2022-10-05T10:00:02.962Z,18.50
2022-10-05T10:01:09.890Z,18.50
2022-10-05T10:02:02.937Z,18.50
2022-10-05T10:03:03.119Z,18.50
2022-10-05T10:04:03.012Z,18.50
2022-10-05T10:05:03.052Z,18.50
2022-10-05T10:06:03.062Z,18.50
2022-10-05T10:07:03.092Z,18.50
2022-10-05T10:08:03.211Z,18.60
2022-10-05T10:09:03.248Z,18.60
2022-10-05T10:10:03.197Z,18.60
2022-10-05T10:11:03.382Z,18.60
2022-10-05T10:12:03.470Z,18.60
2022-10-05T10:13:03.545Z,18.60
2022-10-05T10:14:03.618Z,18.60
2022-10-05T10:15:03.607Z,18.60
2022-10-05T10:16:03.575Z,18.60
2022-10-05T10:17:03.691Z,18.60
2022-10-05T10:18:03.659Z,18.60
2022-10-05T10:19:02.670Z,18.60
2022-10-05T10:20:02.636Z,18.60
2022-10-05T10:21:02.668Z,18.70
2022-10-05T10:22:02.735Z,18.70
2022-10-05T10:23:02.873Z,18.70
2022-10-05T10:24:02.954Z,18.60
2022-10-05T10:25:02.896Z,18.60
2022-10-05T10:26:02.942Z,18.70
2022-10-05T10:27:02.926Z,18.70
2022-10-05T10:28:02.908Z,18.70
2022-10-05T10:29:02.913Z,18.70
2022-10-05T10:30:02.850Z,18.70
2022-10-05T10:31:02.921Z,18.70
2022-10-05T10:32:02.936Z,18.70
2022-10-05T10:33:02.786Z,18.70
2022-10-05T10:34:02.866Z,18.70
2022-10-05T10:35:02.853Z,18.70
2022-10-05T10:36:04.432Z,18.70
2022-10-05T10:37:03.018Z,18.70
2022-10-05T10:38:03.075Z,18.70
2022-10-05T10:39:03.110Z,18.80
2022-10-05T10:40:03.166Z,18.80
2022-10-05T10:41:03.161Z,18.80
2022-10-05T10:42:03.177Z,18.80
2022-10-05T10:43:03.253Z,18.80
2022-10-05T10:44:03.368Z,18.80
2022-10-05T10:45:03.278Z,18.80
2022-10-05T10:46:03.257Z,18.80
2022-10-05T10:47:03.308Z,18.80
2022-10-05T10:48:03.401Z,18.90
2022-10-05T10:49:03.331Z,18.90
2022-10-05T10:50:03.451Z,18.90
2022-10-05T10:51:03.494Z,18.90
2022-10-05T10:52:03.484Z,18.90
2022-10-05T10:53:03.593Z,18.90
2022-10-05T10:54:02.699Z,18.90
2022-10-05T10:55:03.152Z,18.90
2022-10-05T10:56:03.157Z,18.90
2022-10-05T10:57:03.130Z,19.00
2022-10-05T10:58:03.140Z,19.00
2022-10-05T10:59:03.298Z,19.00
2022-10-05T11:00:03.305Z,19.00
2022-10-05T11:01:03.479Z,19.00
2022-10-05T11:02:03.484Z,19.00
2022-10-05T11:03:03.431Z,19.00
2022-10-05T11:04:03.543Z,19.10
2022-10-05T11:05:03.506Z,19.00
2022-10-05T11:06:03.427Z,19.10
2022-10-05T11:07:03.558Z,19.10
2022-10-05T11:08:03.545Z,19.10
2022-10-05T11:09:03.566Z,19.10
2022-10-05T11:10:03.629Z,19.10
2022-10-05T11:11:03.511Z,19.10
2022-10-05T11:12:03.648Z,19.10
2022-10-05T11:13:03.575Z,19.10
2022-10-05T11:14:03.534Z,19.10
2022-10-05T11:15:03.558Z,19.10
2022-10-05T11:16:03.609Z,19.10
2022-10-05T11:17:03.538Z,19.10
2022-10-05T11:18:02.741Z,19.10
2022-10-05T11:19:02.666Z,19.20
2022-10-05T11:20:04.342Z,19.20
2022-10-05T11:21:02.872Z,19.20
2022-10-05T11:22:02.756Z,19.10
2022-10-05T11:23:02.839Z,19.10
2022-10-05T11:24:02.853Z,19.10
2022-10-05T11:25:02.947Z,19.10
2022-10-05T11:26:02.834Z,19.20
2022-10-05T11:27:02.922Z,19.20
2022-10-05T11:28:03.036Z,19.20
2022-10-05T11:29:02.968Z,19.20
2022-10-05T11:30:03.010Z,19.20
2022-10-05T11:31:03.206Z,19.20
2022-10-05T11:32:03.028Z,19.20
2022-10-05T11:33:03.100Z,19.30
2022-10-05T11:34:03.111Z,19.30
2022-10-05T11:35:03.113Z,19.30
2022-10-05T11:36:03.065Z,19.30
2022-10-05T11:37:03.031Z,19.30
2022-10-05T11:38:03.172Z,19.30
2022-10-05T11:39:03.228Z,19.30
2022-10-05T11:40:03.231Z,19.30
2022-10-05T11:41:03.288Z,19.30
2022-10-05T11:42:03.162Z,19.30
2022-10-05T11:43:03.297Z,19.30
2022-10-05T11:44:06.055Z,19.30
2022-10-05T11:45:03.385Z,19.30
2022-10-05T11:46:03.460Z,19.30
2022-10-05T11:47:03.401Z,19.30
2022-10-05T11:48:03.442Z,19.30
2022-10-05T11:49:03.463Z,19.30
2022-10-05T11:50:03.420Z,19.30
2022-10-05T11:51:03.384Z,19.30
2022-10-05T11:52:03.297Z,19.30
2022-10-05T11:53:03.337Z,19.30
2022-10-05T11:54:03.232Z,19.30
2022-10-05T11:55:10.721Z,19.30
2022-10-05T11:56:03.183Z,19.30
2022-10-05T11:57:03.139Z,19.30
2022-10-05T11:58:03.176Z,19.40
2022-10-05T11:59:03.114Z,19.40
2022-10-05T12:00:03.129Z,19.40
2022-10-05T12:01:03.280Z,19.40
2022-10-05T12:02:03.225Z,19.40
2022-10-05T12:03:03.318Z,19.40
2022-10-05T12:04:03.323Z,19.40
2022-10-05T12:05:03.221Z,19.40
2022-10-05T12:06:03.389Z,19.40
2022-10-05T12:07:03.352Z,19.40
2022-10-05T12:08:03.388Z,19.40
2022-10-05T12:09:03.350Z,19.40
2022-10-05T12:10:03.493Z,19.40
2022-10-05T12:11:03.488Z,19.40
2022-10-05T12:12:03.423Z,19.40
2022-10-05T12:13:03.328Z,19.40
2022-10-05T12:14:03.515Z,19.40
2022-10-05T12:15:03.516Z,19.40
2022-10-05T12:16:03.428Z,19.40
2022-10-05T12:17:03.511Z,19.40
2022-10-05T12:18:03.565Z,19.40
2022-10-05T12:19:03.600Z,19.40
2022-10-05T12:20:03.616Z,19.40
2022-10-05T12:21:02.625Z,19.40
2022-10-05T12:22:02.832Z,19.40
2022-10-05T12:23:02.729Z,19.40
2022-10-05T12:24:02.767Z,19.40
2022-10-05T12:25:02.736Z,19.40
2022-10-05T12:26:02.837Z,19.40
2022-10-05T12:27:02.961Z,19.30
2022-10-05T12:28:02.932Z,19.30
2022-10-05T12:29:02.802Z,19.30
2022-10-05T12:30:02.858Z,19.30
2022-10-05T12:31:02.856Z,19.30
2022-10-05T12:32:02.959Z,19.30
2022-10-05T12:33:02.869Z,19.30
2022-10-05T12:34:02.957Z,19.30
2022-10-05T12:35:02.910Z,19.30
2022-10-05T12:36:03.059Z,19.30
2022-10-05T12:37:04.335Z,19.30
2022-10-05T12:38:03.161Z,19.30
2022-10-05T12:39:03.278Z,19.30
2022-10-05T12:40:03.291Z,19.20
2022-10-05T12:41:03.304Z,19.20
2022-10-05T12:42:03.214Z,19.20
2022-10-05T12:43:03.197Z,19.20
2022-10-05T12:44:03.341Z,19.20
2022-10-05T12:45:03.326Z,19.20
2022-10-05T12:46:03.424Z,19.20
2022-10-05T12:47:03.540Z,19.20
2022-10-05T12:48:03.436Z,19.20
2022-10-05T12:49:03.584Z,19.20
2022-10-05T12:50:02.609Z,19.20
2022-10-05T12:51:03.591Z,19.20
2022-10-05T12:52:02.622Z,19.20
2022-10-05T12:53:02.619Z,19.20
2022-10-05T12:54:02.685Z,19.20
2022-10-05T12:55:02.697Z,19.20
2022-10-05T12:56:02.632Z,19.20
2022-10-05T12:57:02.704Z,19.20
2022-10-05T12:58:02.720Z,19.20